Time;durP1;ratioP1;P1;durP2;ratioP2;P2;SDS_P1;SDS_P2;PMS_P1;PMS_P2;Temp;Humidity;BMP_temperature;BMP_pressure;BME280_temperature;BME280_humidity;BME280_pressure;Samples;Min_cycle;Max_cycle;Signal;HPM_P1;HPM_P2
2023/05/07 04:00:44;;;;;;;1.80;1.20;;;17.10;72.50;;;;;;5941999;23;20499;-74
2023/05/07 04:03:11;;;;;;;3.17;1.13;;;17.00;72.70;;;;;;4997758;28;20430;-73
2023/05/07 04:05:37;;;;;;;1.90;1.40;;;17.00;72.90;;;;;;4997358;28;20888;-73
2023/05/07 04:08:05;;;;;;;2.00;1.43;;;17.00;72.90;;;;;;4997134;28;20946;-73
2023/05/07 04:10:32;;;;;;;2.10;1.47;;;17.00;73.10;;;;;;4997197;28;20553;-74
2023/05/07 04:12:58;;;;;;;1.80;1.20;;;17.00;73.00;;;;;;4997443;28;20519;-73
2023/05/07 04:17:54;;;;;;;2.90;1.57;;;17.00;73.10;;;;;;4995562;28;21005;-74
2023/05/07 04:20:21;;;;;;;2.23;1.70;;;17.00;73.00;;;;;;4996540;28;20965;-74
2023/05/07 04:22:47;;;;;;;1.70;1.10;;;17.00;73.10;;;;;;4996469;28;20453;-73
2023/05/07 04:25:15;;;;;;;2.00;1.27;;;17.00;72.80;;;;;;4996313;28;21002;-74
2023/05/07 04:27:41;;;;;;;2.13;1.30;;;17.00;72.80;;;;;;4996829;28;20473;-74
2023/05/07 04:30:09;;;;;;;2.20;1.40;;;17.10;72.90;;;;;;4997174;28;20516;-74
2023/05/07 04:32:37;;;;;;;1.83;1.40;;;17.10;72.60;;;;;;4996653;28;20449;-74
2023/05/07 04:35:05;;;;;;;2.00;1.20;;;17.10;72.90;;;;;;4996214;28;20858;-76
2023/05/07 04:37:33;;;;;;;2.20;1.23;;;17.10;72.80;;;;;;4996530;28;20473;-76
2023/05/07 04:40:00;;;;;;;2.93;1.43;;;17.20;72.70;;;;;;4996175;28;20874;-76
2023/05/07 04:42:26;;;;;;;2.30;1.20;;;17.30;72.60;;;;;;4996462;28;20449;-74
2023/05/07 04:44:54;;;;;;;2.40;1.20;;;17.40;72.50;;;;;;4996373;28;20536;-74
2023/05/07 04:47:21;;;;;;;1.90;1.13;;;17.40;72.60;;;;;;4996200;28;20469;-74
2023/05/07 04:49:47;;;;;;;1.80;1.10;;;17.40;72.70;;;;;;4996364;28;20577;-74
2023/05/07 04:52:16;;;;;;;2.73;1.20;;;17.40;72.80;;;;;;4996304;28;20508;-74
2023/05/07 04:54:43;;;;;;;3.20;2.10;;;17.40;72.70;;;;;;4996205;28;20536;-74
2023/05/07 04:57:10;;;;;;;1.83;1.20;;;17.50;72.40;;;;;;4996120;28;20493;-74
2023/05/07 04:59:36;;;;;;;2.57;1.60;;;17.40;72.30;;;;;;4996167;28;20445;-74
2023/05/07 05:02:04;;;;;;;1.90;1.13;;;17.50;72.30;;;;;;4996018;28;20481;-74
2023/05/07 05:04:31;;;;;;;2.07;1.20;;;17.50;72.60;;;;;;4995715;28;20480;-74
2023/05/07 05:06:58;;;;;;;2.27;1.23;;;17.50;72.70;;;;;;4995638;28;20890;-74
2023/05/07 05:09:26;;;;;;;2.10;1.20;;;17.60;72.80;;;;;;4995941;28;20445;-74
2023/05/07 05:11:53;;;;;;;2.10;1.20;;;17.60;72.90;;;;;;4995597;28;20857;-74
2023/05/07 05:14:19;;;;;;;1.70;1.00;;;17.60;72.80;;;;;;4995865;28;20450;-74
2023/05/07 05:16:46;;;;;;;2.10;1.20;;;17.60;72.60;;;;;;4995570;28;20511;-74
2023/05/07 05:19:13;;;;;;;2.23;1.40;;;17.60;72.70;;;;;;4995512;28;21009;-72
2023/05/07 05:21:39;;;;;;;1.90;1.10;;;17.70;72.90;;;;;;4995700;28;20453;-73
2023/05/07 05:24:07;;;;;;;2.20;1.60;;;17.80;72.80;;;;;;4995250;28;20869;-74
2023/05/07 05:26:35;;;;;;;4.10;1.93;;;18.00;71.60;;;;;;4995249;28;21040;-74
2023/05/07 05:29:01;;;;;;;2.00;1.43;;;18.20;71.00;;;;;;4995564;28;20449;-74
2023/05/07 05:31:28;;;;;;;1.83;1.30;;;18.40;70.40;;;;;;4995236;28;20480;-75
2023/05/07 05:33:55;;;;;;;2.57;1.53;;;18.70;69.50;;;;;;4995445;28;20500;-74
2023/05/07 05:36:21;;;;;;;4.90;1.30;;;18.70;68.30;;;;;;4995343;28;20469;-75
2023/05/07 05:38:48;;;;;;;2.10;1.37;;;18.60;67.70;;;;;;4995384;28;20449;-75
2023/05/07 05:41:15;;;;;;;2.07;1.60;;;18.40;68.40;;;;;;4995059;28;20800;-75
2023/05/07 05:43:43;;;;;;;2.63;1.70;;;18.20;68.20;;;;;;4995239;28;20449;-72
2023/05/07 05:46:11;;;;;;;4.13;1.40;;;18.20;68.80;;;;;;4995048;28;20523;-73
2023/05/07 05:48:38;;;;;;;3.90;1.50;;;18.10;70.80;;;;;;4995121;28;20491;-73
2023/05/07 05:51:04;;;;;;;2.10;1.50;;;18.20;69.30;;;;;;4995149;28;20457;-73
2023/05/07 05:53:31;;;;;;;2.63;1.73;;;18.20;68.80;;;;;;4995205;28;20828;-72
2023/05/07 05:55:58;;;;;;;2.57;1.60;;;18.10;69.30;;;;;;4995050;28;20461;-73
2023/05/07 05:58:24;;;;;;;2.47;1.60;;;17.90;69.80;;;;;;4995303;28;20454;-73
2023/05/07 06:00:53;;;;;;;2.17;1.73;;;18.00;70.90;;;;;;4995163;28;20512;-72
2023/05/07 06:03:19;;;;;;;2.50;1.70;;;18.40;70.10;;;;;;4995042;28;20453;-73
2023/05/07 06:05:46;;;;;;;2.10;1.77;;;18.50;70.40;;;;;;4994871;28;20547;-73
2023/05/07 06:08:13;;;;;;;1.90;1.60;;;18.50;69.00;;;;;;4994909;28;20475;-73
2023/05/07 06:10:40;;;;;;;2.20;1.60;;;18.50;70.60;;;;;;4994829;28;20453;-73
2023/05/07 06:13:06;;;;;;;2.63;1.60;;;18.90;67.80;;;;;;4994526;28;20934;-73
2023/05/07 06:15:33;;;;;;;2.20;1.63;;;18.60;69.00;;;;;;4993938;28;20495;-73
2023/05/07 06:18:01;;;;;;;2.53;1.70;;;18.70;68.70;;;;;;4994995;28;20480;-75
2023/05/07 06:20:27;;;;;;;2.20;1.43;;;18.70;69.20;;;;;;4994796;28;20460;-75
2023/05/07 06:22:54;;;;;;;2.33;1.57;;;18.90;69.00;;;;;;4994441;28;20946;-75
2023/05/07 06:25:21;;;;;;;2.00;1.43;;;19.20;68.90;;;;;;4994591;28;20516;-75
2023/05/07 06:27:47;;;;;;;2.40;1.57;;;19.40;68.50;;;;;;4994316;28;20473;-74
2023/05/07 06:30:14;;;;;;;2.63;1.60;;;19.70;66.90;;;;;;4994616;28;20499;-75
2023/05/07 06:32:41;;;;;;;2.10;1.70;;;19.70;67.00;;;;;;4994503;28;20456;-72
2023/05/07 06:35:10;;;;;;;2.27;1.97;;;20.10;67.30;;;;;;4994605;28;20446;-74
2023/05/07 06:37:38;;;;;;;3.03;1.97;;;20.30;65.30;;;;;;4994521;28;20834;-74
2023/05/07 06:40:06;;;;;;;2.27;1.60;;;20.10;65.90;;;;;;4994447;28;20476;-72
2023/05/07 06:42:33;;;;;;;2.10;1.40;;;20.20;66.00;;;;;;4994945;28;20453;-74
2023/05/07 06:45:00;;;;;;;2.73;1.40;;;20.20;66.00;;;;;;4994144;28;20529;-74
2023/05/07 06:47:26;;;;;;;2.63;1.40;;;20.60;66.00;;;;;;4994315;28;20473;-73
2023/05/07 06:49:53;;;;;;;2.50;1.53;;;20.70;65.90;;;;;;4993892;28;20449;-72
2023/05/07 06:52:21;;;;;;;2.23;1.60;;;20.70;65.50;;;;;;4993802;28;20798;-72
2023/05/07 06:54:48;;;;;;;2.53;1.50;;;20.60;65.40;;;;;;4994135;28;20437;-73
2023/05/07 06:57:14;;;;;;;4.30;1.90;;;20.40;66.10;;;;;;4994025;28;20472;-73
2023/05/07 06:59:41;;;;;;;2.20;1.50;;;20.70;66.30;;;;;;4994060;28;20457;-73
2023/05/07 07:02:08;;;;;;;2.23;1.67;;;20.80;66.30;;;;;;4994032;28;20470;-72
2023/05/07 07:04:35;;;;;;;2.63;1.90;;;21.30;66.00;;;;;;4993608;28;20943;-73
2023/05/07 07:07:01;;;;;;;2.37;1.47;;;21.50;65.80;;;;;;4993997;28;20469;-74
2023/05/07 07:09:29;;;;;;;2.57;1.50;;;21.40;65.30;;;;;;4994065;28;20500;-73
2023/05/07 07:11:56;;;;;;;2.10;1.50;;;21.50;65.70;;;;;;4994025;28;20453;-73
2023/05/07 07:14:22;;;;;;;2.30;1.70;;;21.40;64.40;;;;;;4993809;28;20942;-74
2023/05/07 07:16:49;;;;;;;1.97;1.40;;;21.40;65.60;;;;;;4993663;28;20574;-74
2023/05/07 07:19:16;;;;;;;2.40;1.73;;;21.70;65.60;;;;;;4993931;28;20476;-73
2023/05/07 07:21:42;;;;;;;2.20;1.50;;;21.80;65.40;;;;;;4993454;28;20814;-73
2023/05/07 07:24:09;;;;;;;2.93;1.70;;;21.80;64.50;;;;;;4993801;28;20477;-73
2023/05/07 07:26:37;;;;;;;2.00;1.50;;;21.90;63.90;;;;;;4993579;28;20489;-71
2023/05/07 07:29:04;;;;;;;3.03;1.50;;;22.20;64.10;;;;;;4997738;28;20504;-73
2023/05/07 07:31:31;;;;;;;2.43;1.67;;;22.10;64.20;;;;;;4997693;28;20448;-74
2023/05/07 07:33:57;;;;;;;2.50;2.10;;;22.50;64.70;;;;;;4997697;28;20515;-74
2023/05/07 07:36:25;;;;;;;2.33;1.57;;;22.50;63.40;;;;;;4997525;28;20465;-74
2023/05/07 07:38:52;;;;;;;2.37;1.60;;;22.10;64.80;;;;;;4997417;28;20481;-73
2023/05/07 07:41:19;;;;;;;1.90;1.50;;;22.10;64.10;;;;;;4998150;28;20449;-74
2023/05/07 07:43:47;;;;;;;2.40;1.53;;;22.50;65.50;;;;;;4997361;28;20464;-75
2023/05/07 07:46:14;;;;;;;2.93;1.60;;;22.50;65.40;;;;;;4997442;28;20489;-74
2023/05/07 07:48:40;;;;;;;2.40;1.53;;;22.40;64.40;;;;;;4997285;28;20507;-74
2023/05/07 07:51:07;;;;;;;2.73;1.67;;;22.50;63.40;;;;;;4997188;28;20452;-73
2023/05/07 07:53:33;;;;;;;2.47;1.60;;;22.50;64.60;;;;;;4997049;28;20454;-74
2023/05/07 07:56:00;;;;;;;2.00;1.20;;;22.60;65.40;;;;;;4997229;28;20887;-74
2023/05/07 07:58:27;;;;;;;2.67;1.80;;;22.30;64.20;;;;;;4997435;28;20446;-74
2023/05/07 08:00:55;;;;;;;2.80;1.50;;;22.60;65.60;;;;;;4997068;28;20519;-74
2023/05/07 08:03:22;;;;;;;1.97;1.33;;;22.60;65.30;;;;;;4996698;28;21008;-74
2023/05/07 08:05:50;;;;;;;2.20;1.17;;;22.80;62.80;;;;;;4996895;28;20488;-74
2023/05/07 08:08:17;;;;;;;4.30;1.30;;;23.10;63.80;;;;;;4996668;28;20481;-73
2023/05/07 08:10:44;;;;;;;1.90;1.47;;;23.20;62.00;;;;;;4997031;28;20495;-74
2023/05/07 08:13:11;;;;;;;1.80;1.10;;;23.40;61.50;;;;;;4996877;28;20503;-74
2023/05/07 08:15:37;;;;;;;1.77;1.10;;;23.40;61.70;;;;;;4996576;28;20441;-74
2023/05/07 08:18:05;;;;;;;1.70;1.10;;;23.20;61.70;;;;;;4996747;28;20433;-74
2023/05/07 08:20:33;;;;;;;2.47;1.50;;;23.00;61.80;;;;;;4996582;28;20445;-74
2023/05/07 08:22:59;;;;;;;1.83;1.33;;;23.00;62.60;;;;;;4996572;28;20508;-75
2023/05/07 08:25:26;;;;;;;2.00;1.37;;;23.20;61.30;;;;;;4996302;28;20485;-74
2023/05/07 08:27:53;;;;;;;2.13;1.30;;;23.40;61.50;;;;;;4996440;28;20516;-74
2023/05/07 08:30:20;;;;;;;2.10;1.30;;;23.70;61.10;;;;;;4997099;28;20453;-74
2023/05/07 08:32:46;;;;;;;3.07;1.40;;;23.90;60.40;;;;;;4996296;28;20449;-75
2023/05/07 08:35:14;;;;;;;2.07;1.20;;;23.70;60.90;;;;;;4996326;28;20446;-74
2023/05/07 08:37:41;;;;;;;2.80;1.20;;;23.70;60.60;;;;;;4995534;28;20528;-74
2023/05/07 08:40:08;;;;;;;1.73;1.00;;;23.20;62.10;;;;;;4996202;28;20857;-75
2023/05/07 08:42:37;;;;;;;1.70;1.07;;;23.20;61.80;;;;;;4995848;28;20939;-75
2023/05/07 08:45:09;;;;;;;2.57;1.17;;;23.30;63.00;;;;;;4996002;28;20446;-75
2023/05/07 08:47:44;;;;;;;1.80;1.10;;;23.50;61.20;;;;;;4996022;28;20527;-75
2023/05/07 08:50:11;;;;;;;3.47;1.20;;;23.70;62.10;;;;;;4995967;28;20446;-74
2023/05/07 08:52:40;;;;;;;1.83;1.20;;;23.60;62.90;;;;;;4995952;28;20438;-74
2023/05/07 08:55:08;;;;;;;2.73;1.73;;;23.30;62.20;;;;;;4995879;28;20519;-74
2023/05/07 08:57:35;;;;;;;1.97;1.20;;;23.10;64.20;;;;;;4995762;28;20524;-74
2023/05/07 09:00:02;;;;;;;1.80;1.40;;;23.30;64.00;;;;;;4995850;28;20510;-74
2023/05/07 09:02:29;;;;;;;2.33;1.70;;;23.50;64.60;;;;;;4995679;28;20485;-74
2023/05/07 09:04:56;;;;;;;2.50;1.40;;;23.60;62.50;;;;;;4995609;28;20872;-74
2023/05/07 09:07:23;;;;;;;2.17;1.30;;;23.40;62.30;;;;;;4995474;28;20504;-75
2023/05/07 09:09:51;;;;;;;2.23;1.20;;;23.10;63.30;;;;;;4995575;28;20445;-74
2023/05/07 09:12:18;;;;;;;2.30;1.30;;;22.70;63.80;;;;;;4995618;28;20528;-74
2023/05/07 09:14:45;;;;;;;2.30;1.40;;;22.90;64.20;;;;;;4996208;28;20453;-75
2023/05/07 09:17:12;;;;;;;1.90;1.30;;;22.90;65.00;;;;;;4995334;28;20903;-74
2023/05/07 09:19:39;;;;;;;1.83;1.10;;;23.30;64.20;;;;;;4995376;28;20454;-75
2023/05/07 09:22:07;;;;;;;1.90;1.23;;;23.10;65.00;;;;;;4995367;28;20488;-74
2023/05/07 09:24:37;;;;;;;2.13;1.30;;;23.30;65.50;;;;;;4994960;28;21001;-75
2023/05/07 09:27:06;;;;;;;1.70;1.20;;;23.60;63.40;;;;;;4995119;28;20544;-75
2023/05/07 09:29:35;;;;;;;1.83;1.20;;;23.70;62.80;;;;;;4995257;28;20453;-76
2023/05/07 09:32:02;;;;;;;2.37;1.10;;;23.90;62.70;;;;;;4995237;28;20449;-76
2023/05/07 09:34:29;;;;;;;1.90;1.30;;;24.00;62.60;;;;;;4995151;28;20453;-76
2023/05/07 09:36:57;;;;;;;1.97;1.10;;;23.90;61.70;;;;;;4994987;28;20469;-75
2023/05/07 09:39:24;;;;;;;1.77;1.13;;;23.90;61.00;;;;;;4994715;28;20538;-76
2023/05/07 09:41:54;;;;;;;2.27;1.43;;;24.10;61.30;;;;;;4995463;28;20449;-76
2023/05/07 09:44:22;;;;;;;1.80;1.00;;;24.30;62.60;;;;;;4994946;28;20826;-76
2023/05/07 09:46:55;;;;;;;2.00;1.30;;;24.60;61.20;;;;;;4994702;28;20492;-76
2023/05/07 09:49:24;;;;;;;1.70;1.10;;;24.40;59.70;;;;;;4994159;28;20434;-75
2023/05/07 09:51:52;;;;;;;1.80;1.23;;;24.60;59.90;;;;;;4994786;28;20449;-76
2023/05/07 09:54:20;;;;;;;2.43;1.43;;;24.60;60.30;;;;;;4994913;28;20449;-76
2023/05/07 09:56:47;;;;;;;2.10;1.13;;;24.60;60.00;;;;;;4994721;28;20540;-76
2023/05/07 09:59:16;;;;;;;1.90;1.20;;;25.00;59.70;;;;;;4994528;28;20923;-76
2023/05/07 10:01:45;;;;;;;2.50;1.17;;;24.80;59.60;;;;;;4994677;28;20449;-76
2023/05/07 10:04:12;;;;;;;2.43;1.50;;;24.40;61.60;;;;;;4994918;28;20500;-76
2023/05/07 10:06:39;;;;;;;3.70;1.60;;;24.40;60.50;;;;;;4994454;28;20515;-75
2023/05/07 10:09:06;;;;;;;5.00;1.57;;;24.50;59.50;;;;;;4994481;28;20445;-76
2023/05/07 10:11:34;;;;;;;2.97;1.47;;;24.30;59.80;;;;;;4994413;28;20595;-76
2023/05/07 10:14:02;;;;;;;2.00;1.20;;;24.10;60.70;;;;;;4994379;28;20548;-76
2023/05/07 10:16:31;;;;;;;2.47;1.40;;;24.30;61.70;;;;;;5029105;22;20569;-76
2023/05/07 10:19:00;;;;;;;1.80;1.27;;;24.60;59.90;;;;;;5034129;28;20439;-76
2023/05/07 10:21:28;;;;;;;2.40;1.30;;;24.70;59.70;;;;;;5034355;28;20439;-76
2023/05/07 10:24:00;;;;;;;1.67;0.97;;;24.70;60.90;;;;;;5034275;28;20565;-76
2023/05/07 10:26:30;;;;;;;2.27;1.13;;;24.50;59.60;;;;;;5033860;28;20494;-76
2023/05/07 10:29:02;;;;;;;1.70;1.00;;;24.30;58.60;;;;;;5033927;28;20443;-76
2023/05/07 10:31:50;;;;;;;1.80;1.10;;;24.10;59.40;;;;;;5033612;28;20853;-76
2023/05/07 10:34:22;;;;;;;2.50;1.20;;;24.20;60.50;;;;;;5033604;28;20439;-75
2023/05/07 10:36:50;;;;;;;2.00;1.10;;;24.30;60.80;;;;;;5033764;28;20875;-76
2023/05/07 10:39:17;;;;;;;1.70;1.10;;;24.30;59.10;;;;;;5033684;28;20497;-75
2023/05/07 10:41:43;;;;;;;2.33;1.17;;;24.30;58.80;;;;;;5033777;28;20439;-76
2023/05/07 10:44:11;;;;;;;1.90;1.20;;;24.50;60.20;;;;;;5033812;28;20443;-76
2023/05/07 10:46:37;;;;;;;4.17;1.27;;;24.70;59.10;;;;;;5033619;28;20567;-76
2023/05/07 10:49:12;;;;;;;1.90;1.30;;;24.90;59.30;;;;;;5033630;28;20454;-76
2023/05/07 10:51:40;;;;;;;1.70;1.20;;;24.80;57.40;;;;;;5033400;28;20457;-75
2023/05/07 10:54:21;;;;;;;1.83;1.20;;;24.90;59.20;;;;;;5033260;28;21024;-76
2023/05/07 10:56:50;;;;;;;1.93;1.30;;;25.00;57.60;;;;;;5033479;28;20521;-75
2023/05/07 10:59:41;;;;;;;1.93;1.00;;;25.10;57.70;;;;;;5033586;28;20870;-76
2023/05/07 11:02:09;;;;;;;2.03;1.17;;;25.30;56.60;;;;;;5033354;28;20440;-76
2023/05/07 11:04:37;;;;;;;2.77;1.20;;;25.30;56.30;;;;;;5033468;28;20487;-76
2023/05/07 11:07:27;;;;;;;2.20;1.13;;;25.10;56.70;;;;;;5033333;28;20604;-76
2023/05/07 11:10:00;;;;;;;2.00;0.90;;;25.10;56.90;;;;;;5033478;28;20431;-76
2023/05/07 11:12:56;;;;;;;1.70;1.00;;;25.10;56.60;;;;;;5033356;28;20490;-76
2023/05/07 11:15:37;;;;;;;2.70;1.10;;;25.10;55.30;;;;;;5033434;28;20448;-76
2023/05/07 11:18:04;;;;;;;1.80;1.00;;;25.30;56.90;;;;;;5033146;28;20533;-76
2023/05/07 11:20:57;;;;;;;2.20;1.10;;;25.10;53.90;;;;;;5033394;28;20538;-75
2023/05/07 11:24:00;;;;;;;2.27;1.33;;;25.10;55.10;;;;;;5033242;28;20531;-77
2023/05/07 11:26:31;;;;;;;2.10;1.40;;;25.10;54.90;;;;;;5033200;28;20662;-76
2023/05/07 11:29:00;;;;;;;1.60;1.10;;;24.90;55.00;;;;;;5033275;28;20531;-76
2023/05/07 11:31:29;;;;;;;1.60;1.00;;;24.60;55.00;;;;;;5032969;28;20970;-75
2023/05/07 11:33:56;;;;;;;1.73;0.90;;;24.70;54.80;;;;;;5033221;28;20833;-76
2023/05/07 11:36:24;;;;;;;2.70;1.13;;;24.40;54.00;;;;;;5033005;28;20468;-76
2023/05/07 11:38:51;;;;;;;1.80;0.90;;;24.60;55.00;;;;;;5033175;28;20534;-76
2023/05/07 11:41:20;;;;;;;2.40;1.47;;;24.40;55.10;;;;;;5033168;28;20455;-76
2023/05/07 11:44:00;;;;;;;1.90;1.00;;;24.60;56.80;;;;;;5033020;28;20456;-76
2023/05/07 11:46:28;;;;;;;2.47;1.43;;;24.60;57.00;;;;;;5032979;28;20483;-76
2023/05/07 11:48:56;;;;;;;2.00;1.00;;;24.20;56.40;;;;;;5033147;28;20452;-75
2023/05/07 11:51:25;;;;;;;1.70;1.00;;;24.20;58.00;;;;;;5033069;28;20460;-75
2023/05/07 11:53:52;;;;;;;1.70;1.00;;;24.00;57.20;;;;;;5033031;28;20458;-76
2023/05/07 11:56:21;;;;;;;2.00;1.00;;;24.00;55.90;;;;;;5032830;28;21059;-76
2023/05/07 11:58:49;;;;;;;1.90;1.00;;;24.40;55.10;;;;;;5033135;28;20446;-76
2023/05/07 12:01:16;;;;;;;2.17;1.23;;;24.70;56.30;;;;;;5033437;28;20458;-75
2023/05/07 12:03:45;;;;;;;1.87;1.03;;;24.60;54.20;;;;;;5033138;28;20449;-76
2023/05/07 12:06:12;;;;;;;3.10;1.10;;;24.80;54.30;;;;;;5032691;28;20848;-77
2023/05/07 12:08:40;;;;;;;1.70;1.10;;;24.90;55.00;;;;;;5032762;28;20501;-76
2023/05/07 12:11:13;;;;;;;2.60;1.40;;;24.90;57.50;;;;;;5032877;28;20444;-75
2023/05/07 12:13:42;;;;;;;2.20;1.20;;;24.60;59.60;;;;;;5035167;28;20443;-75
2023/05/07 12:16:09;;;;;;;1.80;1.27;;;24.20;61.00;;;;;;5036273;28;20463;-77
2023/05/07 12:18:37;;;;;;;1.97;0.90;;;23.90;61.20;;;;;;5036013;28;20777;-75
2023/05/07 12:21:05;;;;;;;1.63;0.90;;;23.60;59.80;;;;;;5036446;28;20510;-75
2023/05/07 12:23:32;;;;;;;1.90;0.90;;;23.20;59.80;;;;;;5036274;28;20462;-75
2023/05/07 12:26:00;;;;;;;4.60;0.97;;;23.10;59.50;;;;;;5036203;28;20505;-75
2023/05/07 12:28:27;;;;;;;1.90;1.00;;;22.90;59.10;;;;;;5035786;28;20550;-75
2023/05/07 12:30:56;;;;;;;2.73;1.10;;;22.80;59.20;;;;;;5036082;28;20470;-75
2023/05/07 12:33:25;;;;;;;1.80;0.83;;;22.70;59.30;;;;;;5035794;28;20937;-75
2023/05/07 12:35:54;;;;;;;2.43;0.80;;;22.50;59.60;;;;;;5035662;28;20855;-75
2023/05/07 12:38:21;;;;;;;1.97;0.80;;;22.20;59.70;;;;;;5036035;28;20500;-76
2023/05/07 12:40:50;;;;;;;1.60;0.80;;;22.00;60.30;;;;;;5036371;28;20443;-75
2023/05/07 12:43:18;;;;;;;2.13;1.00;;;21.80;60.20;;;;;;5037001;28;20859;-75
2023/05/07 12:45:46;;;;;;;2.23;0.80;;;21.40;63.40;;;;;;5037295;28;20960;-75
2023/05/07 12:48:14;;;;;;;1.70;1.00;;;21.10;64.80;;;;;;5037176;28;20498;-76
2023/05/07 12:50:40;;;;;;;1.77;0.90;;;20.60;65.50;;;;;;5037414;28;20447;-76
2023/05/07 12:53:08;;;;;;;2.30;1.00;;;20.30;63.60;;;;;;5037821;28;20451;-76
2023/05/07 12:55:43;;;;;;;1.93;0.90;;;20.10;66.70;;;;;;5038758;28;20544;-76
2023/05/07 12:58:16;;;;;;;1.83;0.87;;;20.10;67.40;;;;;;5040344;28;20549;-76
2023/05/07 13:00:43;;;;;;;4.00;1.30;;;20.20;67.40;;;;;;5039689;28;20514;-76
2023/05/07 13:03:10;;;;;;;2.97;1.30;;;20.40;69.80;;;;;;5038552;28;20471;-76
2023/05/07 13:05:38;;;;;;;3.60;1.33;;;20.60;68.60;;;;;;5036394;28;20949;-76
2023/05/07 13:08:05;;;;;;;4.73;1.93;;;20.80;71.20;;;;;;5035983;28;20518;-76
2023/05/07 13:10:33;;;;;;;2.40;1.40;;;20.80;73.70;;;;;;5036416;28;20455;-76
2023/05/07 13:13:00;;;;;;;3.20;1.40;;;20.70;74.20;;;;;;5036370;28;20814;-76
2023/05/07 13:15:27;;;;;;;2.33;1.00;;;20.60;74.10;;;;;;5036193;28;20447;-76
2023/05/07 13:17:54;;;;;;;2.67;1.10;;;20.40;72.10;;;;;;5035916;28;20475;-76
2023/05/07 13:20:20;;;;;;;2.83;1.50;;;20.30;72.80;;;;;;5036277;28;20501;-76
2023/05/07 13:22:48;;;;;;;2.13;1.10;;;20.20;73.40;;;;;;5036692;28;20960;-76
2023/05/07 13:25:15;;;;;;;1.97;0.90;;;19.90;71.80;;;;;;5036275;28;20463;-76
2023/05/07 13:27:42;;;;;;;1.90;0.97;;;19.70;72.50;;;;;;5036042;28;20538;-74
2023/05/07 13:30:08;;;;;;;9.70;8.83;;;19.50;74.10;;;;;;5036231;28;20447;-76
2023/05/07 13:32:35;;;;;;;2.30;1.17;;;19.40;74.00;;;;;;5035958;28;20493;-76
2023/05/07 13:35:03;;;;;;;1.70;0.90;;;19.30;75.70;;;;;;5036108;28;20992;-75
2023/05/07 13:37:29;;;;;;;2.10;1.13;;;19.30;75.70;;;;;;5035701;28;20467;-76
2023/05/07 13:39:57;;;;;;;4.63;1.47;;;19.30;74.90;;;;;;5035033;28;20451;-76
2023/05/07 13:42:24;;;;;;;2.20;1.00;;;19.30;76.50;;;;;;5034324;28;20464;-76
2023/05/07 13:44:51;;;;;;;2.20;1.10;;;19.30;76.80;;;;;;5034655;28;20443;-76
2023/05/07 13:47:17;;;;;;;2.33;1.30;;;19.20;77.20;;;;;;5034343;28;20483;-76
2023/05/07 13:49:44;;;;;;;2.70;1.33;;;18.80;79.20;;;;;;5034633;28;20511;-76
2023/05/07 13:52:11;;;;;;;4.60;1.30;;;18.40;79.90;;;;;;5034550;28;20459;-76
2023/05/07 13:54:38;;;;;;;4.77;1.20;;;18.00;80.50;;;;;;5034740;28;20447;-76
2023/05/07 13:57:06;;;;;;;3.20;1.20;;;17.60;82.30;;;;;;5034420;28;20460;-76
2023/05/07 13:59:32;;;;;;;1.87;1.00;;;17.40;83.50;;;;;;5034641;28;20498;-76
2023/05/07 14:01:59;;;;;;;2.47;1.57;;;17.20;84.00;;;;;;5034370;28;20451;-75
2023/05/07 14:04:26;;;;;;;2.50;1.23;;;17.20;84.40;;;;;;5034305;28;20497;-75
2023/05/07 14:06:52;;;;;;;1.90;1.20;;;17.40;84.00;;;;;;5033914;28;20551;-75
2023/05/07 14:09:19;;;;;;;1.90;1.20;;;17.60;83.50;;;;;;5034180;28;20501;-75
2023/05/07 14:11:47;;;;;;;2.43;1.37;;;17.70;82.90;;;;;;5034980;28;20452;-76
2023/05/07 14:14:15;;;;;;;3.50;1.50;;;17.60;82.60;;;;;;5036955;28;20819;-76
2023/05/07 14:16:42;;;;;;;2.47;1.60;;;17.40;82.80;;;;;;5036311;28;20475;-76
2023/05/07 14:19:08;;;;;;;2.17;1.53;;;17.00;84.80;;;;;;5036891;28;20502;-75
2023/05/07 14:21:35;;;;;;;3.03;1.50;;;16.60;86.10;;;;;;5037037;28;20459;-75
2023/05/07 14:24:03;;;;;;;2.73;1.70;;;16.70;86.70;;;;;;5037470;28;20443;-75
2023/05/07 14:26:30;;;;;;;2.33;1.17;;;16.80;86.80;;;;;;5037043;28;20499;-75
2023/05/07 14:28:58;;;;;;;2.60;1.30;;;16.60;86.90;;;;;;5036376;28;21024;-75
2023/05/07 14:31:26;;;;;;;2.27;1.40;;;16.50;87.10;;;;;;5036912;28;20443;-75
2023/05/07 14:33:53;;;;;;;2.30;1.40;;;16.40;87.30;;;;;;5038244;28;20498;-74
2023/05/07 14:36:21;;;;;;;2.07;1.27;;;16.40;88.10;;;;;;5037349;28;20820;-74
2023/05/07 14:38:47;;;;;;;3.07;1.67;;;16.60;87.20;;;;;;5038668;28;20439;-76
2023/05/07 14:41:14;;;;;;;2.37;1.47;;;16.80;87.20;;;;;;5038814;28;20521;-76
2023/05/07 14:43:41;;;;;;;2.13;1.33;;;16.80;86.90;;;;;;5038588;28;20526;-75
2023/05/07 14:46:08;;;;;;;2.60;1.80;;;17.00;87.50;;;;;;5037227;28;20459;-76
2023/05/07 14:48:36;;;;;;;2.47;1.47;;;17.20;86.30;;;;;;5035996;28;20483;-75
2023/05/07 14:51:02;;;;;;;2.50;1.40;;;17.40;85.80;;;;;;5035715;28;20501;-75
2023/05/07 14:53:29;;;;;;;3.77;1.30;;;17.50;86.30;;;;;;5035682;28;20444;-77
2023/05/07 14:55:56;;;;;;;1.87;1.00;;;17.80;85.80;;;;;;5034782;28;20501;-75
2023/05/07 14:58:22;;;;;;;2.20;1.30;;;18.10;84.00;;;;;;5033979;28;20462;-77
2023/05/07 15:00:49;;;;;;;2.00;1.23;;;18.10;83.20;;;;;;5033502;28;20439;-76
2023/05/07 15:03:16;;;;;;;2.80;1.10;;;18.30;83.20;;;;;;5033704;28;20483;-76
2023/05/07 15:05:44;;;;;;;1.80;1.03;;;18.40;83.00;;;;;;5033161;28;21013;-76
2023/05/07 15:08:10;;;;;;;2.47;1.10;;;18.60;81.70;;;;;;5033279;28;20854;-76
2023/05/07 15:10:41;;;;;;;1.90;1.17;;;18.80;81.90;;;;;;5033210;28;20452;-77
2023/05/07 15:13:08;;;;;;;1.87;1.10;;;18.90;80.30;;;;;;5034616;28;20443;-76
2023/05/07 15:15:34;;;;;;;1.70;0.80;;;19.00;80.80;;;;;;5033532;28;20538;-76
2023/05/07 15:18:01;;;;;;;2.17;1.00;;;19.10;80.50;;;;;;5033010;28;20517;-76
2023/05/07 15:20:28;;;;;;;2.63;1.00;;;19.20;80.50;;;;;;5033117;28;20911;-76
2023/05/07 15:22:56;;;;;;;3.17;1.10;;;19.40;80.70;;;;;;5033372;28;20447;-76
2023/05/07 15:25:23;;;;;;;2.10;1.40;;;19.50;80.40;;;;;;5033307;28;20466;-76
2023/05/07 15:27:51;;;;;;;2.57;1.87;;;19.70;79.50;;;;;;5033032;28;20484;-76
2023/05/07 15:30:19;;;;;;;2.17;1.80;;;19.80;79.50;;;;;;5033366;28;20447;-76
2023/05/07 15:32:46;;;;;;;2.27;1.27;;;19.90;79.70;;;;;;5033367;28;20937;-76
2023/05/07 15:35:13;;;;;;;2.00;1.30;;;19.90;79.00;;;;;;5033129;28;20505;-76
2023/05/07 15:37:40;;;;;;;2.33;1.30;;;20.00;78.70;;;;;;5033089;28;20472;-76
2023/05/07 15:40:10;;;;;;;1.57;0.77;;;20.10;79.20;;;;;;5033229;28;20447;-76
2023/05/07 15:42:37;;;;;;;1.80;0.90;;;20.10;77.80;;;;;;5032892;28;20435;-76
2023/05/07 15:45:05;;;;;;;2.63;1.00;;;19.80;75.80;;;;;;5032795;28;20949;-76
2023/05/07 15:47:34;;;;;;;1.83;0.83;;;19.80;78.40;;;;;;5032866;28;20980;-76
2023/05/07 15:50:01;;;;;;;1.60;0.80;;;19.60;80.00;;;;;;5036761;28;20519;-76
2023/05/07 15:52:28;;;;;;;1.90;1.10;;;19.70;80.20;;;;;;5036898;28;20443;-76
2023/05/07 15:54:55;;;;;;;2.00;1.40;;;19.90;79.60;;;;;;5036868;28;20498;-76
2023/05/07 15:57:23;;;;;;;2.57;1.33;;;20.00;79.00;;;;;;5036786;28;20498;-76
2023/05/07 15:59:50;;;;;;;2.60;1.90;;;20.10;79.10;;;;;;5037313;28;20454;-76
2023/05/07 16:02:17;;;;;;;2.13;1.67;;;20.30;78.90;;;;;;5036934;28;20451;-76
2023/05/07 16:04:43;;;;;;;2.00;1.40;;;20.40;79.00;;;;;;5036637;28;20447;-77
2023/05/07 16:07:10;;;;;;;3.80;1.60;;;20.50;79.70;;;;;;5036818;28;20478;-76
2023/05/07 16:09:36;;;;;;;2.20;1.43;;;20.50;79.80;;;;;;5036913;28;20537;-77
2023/05/07 16:12:04;;;;;;;2.20;1.20;;;20.60;79.80;;;;;;5036956;28;20447;-76
2023/05/07 16:14:32;;;;;;;2.43;1.53;;;20.60;79.50;;;;;;5036886;28;20870;-77
2023/05/07 16:16:58;;;;;;;2.40;1.20;;;20.50;79.30;;;;;;5036925;28;20491;-77
2023/05/07 16:19:25;;;;;;;2.20;1.17;;;20.60;80.00;;;;;;5036498;28;20514;-77
2023/05/07 16:21:52;;;;;;;1.80;1.20;;;20.60;79.40;;;;;;5036641;28;20451;-77
2023/05/07 16:24:18;;;;;;;1.87;1.30;;;20.60;80.00;;;;;;5036255;28;20451;-76
2023/05/07 16:26:45;;;;;;;3.43;1.37;;;20.50;79.70;;;;;;5036453;28;20463;-78
2023/05/07 16:29:12;;;;;;;2.50;1.50;;;20.50;79.90;;;;;;5036470;28;20482;-77
2023/05/07 16:31:40;;;;;;;2.40;1.50;;;20.50;80.00;;;;;;5037194;28;20446;-78
2023/05/07 16:34:06;;;;;;;3.00;2.20;;;20.50;79.40;;;;;;5036232;28;20796;-77
2023/05/07 16:36:33;;;;;;;2.40;1.93;;;20.40;79.20;;;;;;5036169;28;20475;-78
2023/05/07 16:39:00;;;;;;;3.97;2.00;;;20.50;79.00;;;;;;5036234;28;20493;-77
2023/05/07 16:41:26;;;;;;;2.90;2.37;;;20.50;79.40;;;;;;5036062;28;20448;-77
2023/05/07 16:43:53;;;;;;;3.13;2.53;;;20.50;79.30;;;;;;5036022;28;20509;-75
2023/05/07 16:46:20;;;;;;;3.70;2.70;;;20.60;79.20;;;;;;5036199;28;20501;-77
2023/05/07 16:48:47;;;;;;;2.90;2.10;;;20.60;79.00;;;;;;5036101;28;20475;-76
2023/05/07 16:51:14;;;;;;;1.90;1.23;;;20.50;79.20;;;;;;5036012;28;20501;-76
2023/05/07 16:53:41;;;;;;;3.03;1.30;;;20.40;79.00;;;;;;5035886;28;20451;-76